Terminal Aerodrome Forecast
Issued by NWS

Home | Current Version | Previous Version | Text Only | Print | Product List | Glossary On
Versions: 1 2 3 4 5 6 7 8 9 10 11 12 13 14 15 16 17 18 19 20 21 22 23 24 25 26 27 28
000
FTUS45 KCYS 022324
TAFAIA
TAF
KAIA 022324Z 0300/0324 03010KT P6SM VCSH BKN080
      TEMPO 0302/0306 5SM -SHRA OVC050
     FM030900 36007KT 4SM BR SCT120
     FM031200 30007KT P6SM SCT120=

USA.gov is the U.S. government's official web portal to all federal, state and local government web resources and services.